EFKK/KOK METAR and TAF weather

Enter ICAO airport designator
Station Type Date Time Source
EFKK METAR 2021/05/10 00:50 UTC NOAA

EFKK 100050Z AUTO 14006KT 110V170 9999 -RA NCD 05/04 Q1011


Station Type Date Time Source
EFKK Decoded METAR 2021/05/10 00:50 UTC NOAA

Kruunupyy, Finland (EFKK) 63-43N 023-09E
May 09, 2021 - 08:50 PM EDT / 2021.05.10 0050 UTC
Wind: from the SE (140 degrees) at 7 MPH (6 KT) (direction variable):0
Visibility: greater than 7 mile(s):0
Weather: light rain
Temperature: 41 F (5 C)
Dew Point: 39 F (4 C)
Relative Humidity: 93%
Pressure (altimeter): 29.85 in. Hg (1011 hPa)
ob: EFKK 100050Z AUTO 14006KT 110V170 9999 -RA NCD 05/04 Q1011
cycle: 1

Station Type Date Time Source
EFKK TAF 2019/04/22 21:42 UTC NOAA

TAF EFKK 222023Z 2221/2321 18006KT CAVOK

Example: see airport list